createdAt,value
2022-09-07T00:02:33.125Z,22.71
2022-09-07T00:05:03.226Z,22.45
2022-09-07T00:07:33.895Z,22.44
2022-09-07T00:10:03.535Z,22.21
2022-09-07T00:12:33.293Z,22.27
2022-09-07T00:15:05.154Z,23.07
2022-09-07T00:17:36.056Z,22.69
2022-09-07T00:20:09.186Z,22.45
2022-09-07T00:22:41.429Z,22.09
2022-09-07T00:25:11.952Z,22.17
2022-09-07T00:27:42.498Z,22.41
2022-09-07T00:30:13.284Z,22.48
2022-09-07T00:32:43.743Z,22.81
2022-09-07T00:35:13.816Z,21.80
2022-09-07T00:37:44.232Z,22.15
2022-09-07T00:40:14.198Z,22.61
2022-09-07T00:42:44.813Z,21.62
2022-09-07T00:45:21.396Z,21.26
2022-09-07T00:47:57.996Z,21.09
2022-09-07T00:50:34.920Z,20.92
2022-09-07T00:53:29.280Z,20.89
2022-09-07T00:56:01.048Z,20.89
2022-09-07T00:58:32.759Z,21.68
2022-09-07T01:01:03.070Z,22.12
2022-09-07T01:03:42.777Z,22.22
2022-09-07T01:06:23.347Z,21.98
2022-09-07T01:08:54.761Z,22.37
2022-09-07T01:11:25.428Z,22.26
2022-09-07T01:13:58.767Z,22.66
2022-09-07T01:17:03.949Z,22.51
2022-09-07T01:19:55.697Z,22.52
2022-09-07T01:22:43.782Z,22.50
2022-09-07T01:25:33.382Z,22.69
2022-09-07T01:28:18.686Z,22.66
2022-09-07T01:31:30.380Z,22.27
2022-09-07T01:34:06.963Z,22.25
2022-09-07T01:36:41.071Z,22.82
2022-09-07T01:39:11.097Z,22.80
2022-09-07T01:42:02.968Z,22.72
2022-09-07T01:44:41.405Z,22.43
2022-09-07T01:47:38.727Z,22.61
2022-09-07T01:50:17.410Z,21.87
2022-09-07T01:53:06.323Z,22.48
2022-09-07T01:55:47.723Z,22.23
2022-09-07T01:58:36.779Z,21.80
2022-09-07T02:01:25.406Z,21.07
2022-09-07T02:04:05.662Z,21.02
2022-09-07T02:06:59.068Z,20.78
2022-09-07T02:09:54.579Z,20.54
2022-09-07T02:12:39.845Z,20.57
2022-09-07T02:15:18.380Z,20.53
2022-09-07T02:17:54.285Z,20.44
2022-09-07T02:20:30.792Z,20.47
2022-09-07T02:23:04.007Z,20.50
2022-09-07T02:25:54.738Z,20.49
2022-09-07T02:28:37.027Z,20.82
2022-09-07T02:31:07.759Z,21.68
2022-09-07T02:33:38.107Z,21.79
2022-09-07T02:36:09.568Z,22.01
2022-09-07T02:38:39.555Z,21.21
2022-09-07T02:41:35.432Z,21.43
2022-09-07T02:44:13.401Z,21.32
2022-09-07T02:47:29.651Z,22.04
2022-09-07T02:50:28.142Z,22.23
2022-09-07T02:53:16.909Z,21.94
2022-09-07T02:55:56.593Z,22.33
2022-09-07T02:58:40.251Z,21.68
2022-09-07T03:01:10.445Z,21.56
2022-09-07T03:04:04.888Z,21.85
2022-09-07T03:06:54.731Z,21.87
2022-09-07T03:09:32.111Z,22.06
2022-09-07T03:12:08.558Z,22.19
2022-09-07T03:14:42.432Z,22.55
2022-09-07T03:17:13.319Z,22.45
2022-09-07T03:19:43.875Z,22.44
2022-09-07T03:22:14.691Z,22.15
2022-09-07T03:24:44.758Z,21.99
2022-09-07T03:27:14.491Z,21.92
2022-09-07T03:29:45.255Z,22.21
2022-09-07T03:32:15.307Z,21.78
2022-09-07T03:34:46.255Z,20.73
2022-09-07T03:37:16.490Z,20.40
2022-09-07T03:39:47.274Z,21.18
2022-09-07T03:42:16.897Z,20.78
2022-09-07T03:44:47.799Z,21.25
2022-09-07T03:47:18.689Z,21.59
2022-09-07T03:49:50.215Z,22.17
2022-09-07T03:52:20.506Z,22.28
2022-09-07T03:54:51.228Z,21.68
2022-09-07T03:57:23.868Z,21.07
2022-09-07T03:59:54.649Z,20.32
2022-09-07T04:02:24.272Z,20.25
2022-09-07T04:04:54.021Z,20.02
2022-09-07T04:07:24.692Z,20.08
2022-09-07T04:09:54.720Z,20.51
2022-09-07T04:12:25.169Z,20.56
2022-09-07T04:14:55.771Z,20.75
2022-09-07T04:17:25.780Z,21.13
2022-09-07T04:19:56.894Z,21.32
2022-09-07T04:22:27.056Z,21.54
2022-09-07T04:24:57.648Z,21.36
2022-09-07T04:27:27.920Z,21.57
2022-09-07T04:29:58.457Z,21.49
2022-09-07T04:32:28.638Z,21.30
2022-09-07T04:35:01.397Z,21.08
2022-09-07T04:37:31.587Z,21.15
2022-09-07T04:40:02.185Z,21.24
2022-09-07T04:42:32.423Z,21.05
2022-09-07T04:45:03.067Z,20.44
2022-09-07T04:47:33.466Z,20.17
2022-09-07T04:50:04.379Z,19.62
2022-09-07T04:52:35.115Z,19.38
2022-09-07T04:55:06.376Z,19.44
2022-09-07T04:57:39.519Z,19.82
2022-09-07T05:00:13.873Z,20.00
2022-09-07T05:02:44.366Z,20.37
2022-09-07T05:05:15.210Z,20.75
2022-09-07T05:07:44.957Z,21.20
2022-09-07T05:10:15.559Z,21.22
2022-09-07T05:12:47.647Z,20.63
2022-09-07T05:15:20.561Z,21.14
2022-09-07T05:17:52.238Z,21.42
2022-09-07T05:20:23.354Z,21.57
2022-09-07T05:23:00.743Z,21.82
2022-09-07T05:25:32.478Z,21.33
2022-09-07T05:28:02.703Z,20.98
2022-09-07T05:36:15.140Z,20.87
2022-09-07T05:38:45.499Z,21.47
2022-09-07T05:41:18.337Z,21.57
2022-09-07T05:46:40.376Z,21.84
2022-09-07T05:49:11.377Z,21.01
2022-09-07T05:51:42.261Z,20.53
2022-09-07T05:54:13.302Z,20.18
2022-09-07T05:56:44.152Z,20.34
2022-09-07T05:59:14.350Z,20.13
2022-09-07T06:01:45.285Z,19.93
2022-09-07T06:04:15.554Z,19.92
2022-09-07T06:06:59.303Z,19.75
2022-09-07T06:12:27.107Z,19.72
2022-09-07T06:14:57.543Z,19.70
2022-09-07T06:17:28.091Z,19.86
2022-09-07T06:19:58.546Z,19.88
2022-09-07T06:22:31.186Z,20.35
2022-09-07T06:25:01.633Z,20.13
2022-09-07T06:27:32.307Z,20.23
2022-09-07T06:30:02.501Z,20.38
2022-09-07T06:32:48.117Z,20.68
2022-09-07T06:35:19.102Z,21.36
2022-09-07T06:37:49.282Z,21.15
2022-09-07T06:40:19.956Z,21.12
2022-09-07T06:42:51.198Z,21.31
2022-09-07T06:45:21.836Z,21.96
2022-09-07T06:47:55.995Z,21.33
2022-09-07T06:50:28.959Z,20.78
2022-09-07T06:55:49.882Z,20.30
2022-09-07T06:58:19.665Z,20.04
2022-09-07T07:00:49.794Z,19.81
2022-09-07T07:03:20.954Z,19.77
2022-09-07T07:05:58.622Z,19.61
2022-09-07T07:08:29.297Z,19.52
2022-09-07T07:11:04.431Z,20.07
2022-09-07T07:13:36.656Z,20.01
2022-09-07T07:16:10.014Z,19.91
2022-09-07T07:18:41.610Z,19.82
2022-09-07T07:21:17.077Z,20.12
2022-09-07T07:23:52.446Z,19.77
2022-09-07T07:26:27.939Z,20.03
2022-09-07T07:31:30.894Z,21.11
2022-09-07T07:34:01.578Z,21.68
2022-09-07T07:36:35.654Z,21.66
2022-09-07T07:39:06.713Z,21.61
2022-09-07T07:44:25.201Z,21.63
2022-09-07T07:46:55.684Z,21.85
2022-09-07T07:49:26.536Z,21.21
2022-09-07T07:54:48.019Z,19.97
2022-09-07T07:57:20.142Z,20.21
2022-09-07T07:59:51.043Z,20.05
2022-09-07T08:02:21.350Z,19.73
2022-09-07T08:04:52.530Z,19.84
2022-09-07T08:07:23.184Z,19.83
2022-09-07T08:09:54.074Z,19.71
2022-09-07T08:12:29.101Z,20.34
2022-09-07T08:15:00.349Z,20.76
2022-09-07T08:17:30.936Z,20.21
2022-09-07T08:20:01.548Z,20.77
2022-09-07T08:22:34.782Z,20.48
2022-09-07T08:25:06.441Z,19.96
2022-09-07T08:27:37.517Z,19.87
2022-09-07T08:30:08.808Z,19.98
2022-09-07T08:32:39.075Z,20.23
2022-09-07T08:35:10.031Z,19.86
2022-09-07T08:37:40.169Z,19.77
2022-09-07T08:40:20.062Z,19.83
2022-09-07T08:42:59.259Z,19.54
2022-09-07T08:45:36.543Z,19.50
2022-09-07T08:48:07.326Z,19.59
2022-09-07T08:50:47.638Z,19.62
2022-09-07T08:53:21.051Z,19.71
2022-09-07T08:56:02.411Z,19.60
2022-09-07T08:58:51.198Z,19.48
2022-09-07T09:01:43.215Z,19.49
2022-09-07T09:04:32.831Z,19.51
2022-09-07T09:07:39.775Z,19.53
2022-09-07T09:10:23.059Z,19.93
2022-09-07T09:13:04.833Z,19.66
2022-09-07T09:15:53.476Z,19.58
2022-09-07T09:18:36.126Z,19.59
2022-09-07T09:21:09.363Z,20.27
2022-09-07T09:23:43.603Z,20.02
2022-09-07T09:26:32.214Z,19.61
2022-09-07T09:29:23.619Z,19.47
2022-09-07T09:31:54.698Z,19.59
2022-09-07T09:34:29.411Z,19.50
2022-09-07T09:37:02.072Z,19.56
2022-09-07T09:39:34.971Z,19.56
2022-09-07T09:42:28.029Z,20.34
2022-09-07T09:45:13.602Z,20.54
2022-09-07T09:47:50.144Z,20.59
2022-09-07T09:53:33.863Z,21.16
2022-09-07T09:56:06.495Z,21.21
2022-09-07T10:04:28.755Z,20.46
2022-09-07T10:07:25.205Z,20.01
2022-09-07T10:09:56.945Z,19.82
2022-09-07T10:12:35.751Z,20.03
2022-09-07T10:15:09.517Z,20.43
2022-09-07T10:17:45.123Z,21.07
2022-09-07T10:20:18.199Z,20.90
2022-09-07T10:23:01.032Z,21.41
2022-09-07T10:25:42.865Z,21.99
2022-09-07T10:28:16.510Z,21.56
2022-09-07T10:31:01.637Z,21.50
2022-09-07T10:37:04.582Z,21.93
2022-09-07T10:39:42.888Z,22.10
2022-09-07T10:42:30.195Z,22.00
2022-09-07T10:45:03.614Z,22.10
2022-09-07T10:47:33.821Z,21.89
2022-09-07T10:50:26.599Z,22.48
2022-09-07T10:52:57.164Z,22.70
2022-09-07T10:55:36.150Z,22.48
2022-09-07T10:58:15.580Z,22.88
2022-09-07T11:00:53.363Z,21.73
2022-09-07T11:03:44.354Z,21.77
2022-09-07T11:06:17.913Z,21.50
2022-09-07T11:12:06.630Z,22.27
2022-09-07T11:14:55.684Z,22.84
2022-09-07T11:17:29.470Z,23.29
2022-09-07T11:20:20.179Z,23.52
2022-09-07T11:23:01.867Z,24.17
2022-09-07T11:25:56.924Z,24.34
2022-09-07T11:29:29.434Z,23.50
2022-09-07T11:32:15.602Z,23.29
2022-09-07T11:34:53.547Z,23.05
2022-09-07T11:37:45.280Z,22.93
2022-09-07T11:40:32.828Z,22.63
2022-09-07T11:43:26.371Z,22.74
2022-09-07T11:46:01.150Z,23.09
2022-09-07T11:48:35.199Z,22.85
2022-09-07T11:51:17.614Z,22.64
2022-09-07T11:53:58.830Z,22.43
2022-09-07T11:56:37.492Z,22.63
2022-09-07T11:59:36.884Z,22.76
2022-09-07T12:02:32.214Z,22.82
2022-09-07T12:05:27.281Z,23.11
2022-09-07T12:08:33.349Z,23.55
2022-09-07T12:11:23.722Z,24.45
2022-09-07T12:13:59.470Z,25.47
2022-09-07T12:16:46.223Z,25.96
2022-09-07T12:19:28.558Z,26.48
2022-09-07T12:22:00.922Z,26.60
2022-09-07T12:24:40.007Z,26.56
2022-09-07T12:27:22.921Z,26.31
2022-09-07T12:30:15.535Z,25.44
2022-09-07T12:32:58.001Z,25.29
2022-09-07T12:35:32.063Z,25.04
2022-09-07T12:38:04.341Z,25.51
2022-09-07T12:40:41.358Z,25.86
2022-09-07T12:43:14.807Z,26.49
2022-09-07T12:45:45.014Z,27.16
2022-09-07T12:48:18.384Z,26.87
2022-09-07T12:50:57.505Z,26.29
2022-09-07T12:53:57.608Z,27.16
2022-09-07T12:56:39.685Z,27.02
2022-09-07T12:59:35.233Z,26.74
2022-09-07T13:02:30.838Z,25.74
2022-09-07T13:05:39.523Z,25.83
2022-09-07T13:08:45.122Z,26.16
2022-09-07T13:11:20.910Z,27.08
2022-09-07T13:14:03.664Z,27.46
2022-09-07T13:19:53.385Z,27.90
2022-09-07T13:22:32.700Z,28.39
2022-09-07T13:25:27.396Z,28.70
2022-09-07T13:28:28.445Z,29.20
2022-09-07T13:31:17.830Z,28.58
2022-09-07T13:33:52.946Z,27.90
2022-09-07T13:36:51.882Z,28.61
2022-09-07T13:39:23.414Z,28.19
2022-09-07T13:41:57.204Z,28.94
2022-09-07T13:44:34.517Z,30.14
2022-09-07T13:47:32.657Z,30.00
2022-09-07T13:50:21.681Z,30.47
2022-09-07T13:53:10.309Z,31.11
2022-09-07T13:56:21.513Z,30.12
2022-09-07T13:58:53.930Z,29.83
2022-09-07T14:01:27.507Z,30.02
2022-09-07T14:04:08.603Z,29.72
2022-09-07T14:06:40.351Z,30.08
2022-09-07T14:09:17.766Z,29.98
2022-09-07T14:11:50.704Z,30.00
2022-09-07T14:14:23.112Z,29.33
2022-09-07T14:17:02.236Z,30.01
2022-09-07T14:19:35.078Z,31.17
2022-09-07T14:22:08.939Z,31.19
2022-09-07T14:24:44.938Z,30.88
2022-09-07T14:27:33.006Z,31.59
2022-09-07T14:30:24.730Z,31.89
2022-09-07T14:33:15.116Z,31.60
2022-09-07T14:35:45.419Z,32.51
2022-09-07T14:39:04.048Z,33.28
2022-09-07T14:41:14.926Z,33.27
2022-09-07T14:44:00.266Z,33.63
2022-09-07T14:46:33.181Z,34.67
2022-09-07T14:49:19.433Z,34.96
2022-09-07T14:51:51.598Z,35.56
2022-09-07T14:54:35.131Z,36.28
2022-09-07T14:57:09.157Z,36.20
2022-09-07T14:59:43.605Z,35.87
2022-09-07T15:02:35.914Z,34.82
2022-09-07T15:05:30.612Z,34.48
2022-09-07T15:08:02.938Z,33.89
2022-09-07T15:10:38.107Z,32.89
2022-09-07T15:13:29.299Z,32.10
2022-09-07T15:16:02.627Z,32.53
2022-09-07T15:19:06.811Z,32.43
2022-09-07T15:21:40.942Z,31.83
2022-09-07T15:24:11.658Z,32.09
2022-09-07T15:29:33.413Z,33.11
2022-09-07T15:32:05.037Z,32.73
2022-09-07T15:34:35.461Z,33.37
2022-09-07T15:38:01.006Z,34.25
2022-09-07T15:39:56.635Z,34.06
2022-09-07T15:45:17.568Z,34.22
2022-09-07T15:47:52.870Z,33.01
2022-09-07T15:50:23.633Z,33.00
2022-09-07T15:52:54.109Z,32.70
2022-09-07T15:55:25.484Z,33.16
2022-09-07T15:58:10.757Z,34.06
2022-09-07T16:00:42.408Z,35.49
2022-09-07T16:03:12.936Z,35.79
2022-09-07T16:05:45.268Z,36.29
2022-09-07T16:11:27.139Z,37.37
2022-09-07T16:14:02.638Z,35.44
2022-09-07T16:19:25.560Z,35.23
2022-09-07T16:21:57.626Z,35.05
2022-09-07T16:24:29.472Z,35.77
2022-09-07T16:26:59.415Z,35.54
2022-09-07T16:29:29.760Z,35.95
2022-09-07T16:34:50.263Z,35.53
2022-09-07T16:37:20.367Z,34.50
2022-09-07T16:39:52.592Z,33.64
2022-09-07T16:42:22.714Z,33.34
2022-09-07T16:44:53.917Z,32.95
2022-09-07T16:47:24.636Z,32.64
2022-09-07T16:49:54.855Z,32.60
2022-09-07T16:52:25.277Z,32.48
2022-09-07T16:54:55.304Z,32.80
2022-09-07T16:57:26.002Z,32.59
2022-09-07T16:59:55.950Z,32.72
2022-09-07T17:02:26.262Z,33.08
2022-09-07T17:04:56.397Z,34.44
2022-09-07T17:07:26.715Z,34.91
2022-09-07T17:09:56.758Z,35.80
2022-09-07T17:12:27.143Z,36.32
2022-09-07T17:14:57.072Z,36.72
2022-09-07T17:17:30.137Z,37.82
2022-09-07T17:20:00.362Z,37.52
2022-09-07T17:22:30.715Z,37.33
2022-09-07T17:25:00.498Z,37.35
2022-09-07T17:27:30.850Z,37.29
2022-09-07T17:30:00.826Z,37.47
2022-09-07T17:32:31.951Z,38.02
2022-09-07T17:35:02.387Z,37.61
2022-09-07T17:37:32.466Z,36.72
2022-09-07T17:40:05.774Z,35.87
2022-09-07T17:45:27.977Z,35.86
2022-09-07T17:47:58.149Z,35.41
2022-09-07T17:50:28.548Z,34.97
2022-09-07T17:52:59.163Z,35.50
2022-09-07T17:55:32.801Z,35.74
2022-09-07T17:58:04.639Z,36.13
2022-09-07T18:00:36.005Z,36.54
2022-09-07T18:03:05.974Z,36.61
2022-09-07T18:05:36.336Z,37.11
2022-09-07T18:08:06.612Z,37.11
2022-09-07T18:13:35.706Z,37.96
2022-09-07T18:16:23.701Z,37.65
2022-09-07T18:18:54.730Z,36.46
2022-09-07T18:21:34.276Z,34.87
2022-09-07T18:24:19.403Z,33.98
2022-09-07T18:26:52.084Z,34.44
2022-09-07T18:29:33.891Z,35.06
2022-09-07T18:32:09.696Z,35.61
2022-09-07T18:34:41.406Z,34.96
2022-09-07T18:37:13.230Z,33.32
2022-09-07T18:39:43.416Z,33.20
2022-09-07T18:42:14.202Z,32.62
2022-09-07T18:47:34.526Z,33.48
2022-09-07T18:50:04.606Z,34.46
2022-09-07T18:55:25.237Z,35.45
2022-09-07T18:57:55.903Z,35.55
2022-09-07T19:00:25.845Z,35.05
2022-09-07T19:02:56.263Z,34.39
2022-09-07T19:08:17.569Z,32.52
2022-09-07T19:10:47.559Z,31.43
2022-09-07T19:13:17.975Z,31.52
2022-09-07T19:15:48.231Z,32.22
2022-09-07T19:18:21.387Z,32.16
2022-09-07T19:20:51.295Z,31.50
2022-09-07T19:23:21.897Z,30.89
2022-09-07T19:25:52.003Z,29.97
2022-09-07T19:28:22.884Z,30.55
2022-09-07T19:30:52.985Z,30.65
2022-09-07T19:33:24.352Z,30.22
2022-09-07T19:35:54.326Z,29.91
2022-09-07T19:38:24.791Z,30.17
2022-09-07T19:41:02.036Z,30.06
2022-09-07T19:43:36.363Z,29.81
2022-09-07T19:46:06.381Z,29.52
2022-09-07T19:48:36.755Z,29.81
2022-09-07T19:51:08.838Z,29.94
2022-09-07T19:53:47.288Z,29.40
2022-09-07T19:56:22.814Z,29.36
2022-09-07T19:58:53.261Z,29.25
2022-09-07T20:01:26.148Z,28.69
2022-09-07T20:04:01.897Z,28.57
2022-09-07T20:06:36.333Z,28.58
2022-09-07T20:09:08.112Z,28.78
2022-09-07T20:11:40.014Z,28.19
2022-09-07T20:14:12.197Z,28.44
2022-09-07T20:16:42.688Z,28.58
2022-09-07T20:19:15.589Z,28.31
2022-09-07T20:21:50.011Z,28.07
2022-09-07T20:24:23.488Z,28.62
2022-09-07T20:26:55.278Z,28.16
2022-09-07T20:29:28.180Z,28.75
2022-09-07T20:32:00.509Z,29.22
2022-09-07T20:34:31.555Z,28.55
2022-09-07T20:37:02.192Z,29.11
2022-09-07T20:39:36.967Z,29.05
2022-09-07T20:42:09.183Z,29.45
2022-09-07T20:44:41.315Z,29.34
2022-09-07T20:47:11.356Z,28.41
2022-09-07T20:49:41.790Z,28.32
2022-09-07T20:52:11.043Z,28.47
2022-09-07T20:54:41.001Z,27.66
2022-09-07T20:57:11.932Z,26.83
2022-09-07T21:02:12.946Z,26.67
2022-09-07T21:04:44.543Z,26.82
2022-09-07T21:07:14.951Z,27.15
2022-09-07T21:09:44.404Z,26.55
2022-09-07T21:12:14.158Z,26.38
2022-09-07T21:14:46.625Z,26.32
2022-09-07T21:17:16.587Z,26.66
2022-09-07T21:19:46.915Z,26.29
2022-09-07T21:22:16.858Z,26.11
2022-09-07T21:24:47.356Z,26.24
2022-09-07T21:27:17.388Z,26.07
2022-09-07T21:29:47.762Z,25.70
2022-09-07T21:32:17.682Z,25.40
2022-09-07T21:34:48.528Z,24.96
2022-09-07T21:37:18.567Z,25.14
2022-09-07T21:39:49.014Z,24.88
2022-09-07T21:42:19.495Z,24.66
2022-09-07T21:44:49.209Z,24.42
2022-09-07T21:47:19.903Z,24.28
2022-09-07T21:49:50.015Z,24.59
2022-09-07T21:52:20.663Z,24.48
2022-09-07T21:54:50.650Z,24.55
2022-09-07T21:57:20.664Z,24.47
2022-09-07T21:59:50.876Z,24.31
2022-09-07T22:02:21.727Z,24.03
2022-09-07T22:04:55.107Z,24.32
2022-09-07T22:07:24.602Z,24.27
2022-09-07T22:09:54.291Z,24.53
2022-09-07T22:12:24.699Z,24.77
2022-09-07T22:14:54.482Z,24.82
2022-09-07T22:17:24.951Z,25.00
2022-09-07T22:19:54.970Z,24.29
2022-09-07T22:22:25.394Z,24.41
2022-09-07T22:24:55.082Z,24.30
2022-09-07T22:27:25.532Z,25.02
2022-09-07T22:29:56.057Z,24.74
2022-09-07T22:32:26.729Z,24.52
2022-09-07T22:34:56.544Z,24.39
2022-09-07T22:37:27.672Z,24.28
2022-09-07T22:39:57.814Z,24.46
2022-09-07T22:42:28.268Z,24.25
2022-09-07T22:44:58.039Z,24.26
2022-09-07T22:47:28.636Z,24.27
2022-09-07T22:49:58.506Z,23.91
2022-09-07T22:52:29.150Z,24.00
2022-09-07T22:54:58.665Z,24.58
2022-09-07T22:57:28.379Z,24.21
2022-09-07T22:59:58.797Z,24.17
2022-09-07T23:02:28.587Z,24.07
2022-09-07T23:04:59.226Z,24.34
2022-09-07T23:07:29.273Z,24.28
2022-09-07T23:09:59.706Z,24.31
2022-09-07T23:12:29.448Z,24.80
2022-09-07T23:14:59.920Z,24.84
2022-09-07T23:17:29.763Z,24.62
2022-09-07T23:19:59.430Z,24.71
2022-09-07T23:22:35.422Z,24.90
2022-09-07T23:25:05.814Z,24.81
2022-09-07T23:27:36.419Z,24.84
2022-09-07T23:30:08.167Z,25.39
2022-09-07T23:32:38.901Z,25.23
2022-09-07T23:35:12.691Z,24.96
2022-09-07T23:37:47.341Z,25.26
2022-09-07T23:40:17.780Z,24.96
2022-09-07T23:42:48.913Z,24.60
2022-09-07T23:45:19.194Z,23.49
2022-09-07T23:47:49.609Z,24.43
2022-09-07T23:50:19.614Z,24.37
2022-09-07T23:52:50.019Z,24.05
2022-09-07T23:55:20.114Z,23.52
2022-09-07T23:57:51.138Z,23.80
